createdAt,value
2023-03-24T00:01:20.783Z,16.60
2023-03-24T00:03:52.073Z,16.70
2023-03-24T00:06:22.616Z,16.70
2023-03-24T00:08:51.048Z,16.80
2023-03-24T00:11:21.089Z,16.80
2023-03-24T00:13:51.159Z,16.80
2023-03-24T00:16:21.806Z,16.90
2023-03-24T00:18:53.922Z,16.90
2023-03-24T00:21:25.082Z,16.90
2023-03-24T00:23:55.625Z,17.00
2023-03-24T00:26:25.264Z,17.00
2023-03-24T00:28:57.205Z,17.00
2023-03-24T00:31:26.558Z,17.00
2023-03-24T00:33:55.321Z,17.10
2023-03-24T00:36:25.822Z,17.10
2023-03-24T00:38:55.725Z,17.20
2023-03-24T00:41:27.113Z,17.20
2023-03-24T00:43:58.685Z,17.30
2023-03-24T00:46:30.674Z,17.30
2023-03-24T00:49:05.799Z,17.40
2023-03-24T00:51:37.109Z,17.40
2023-03-24T00:54:06.742Z,17.40
2023-03-24T00:56:38.063Z,17.40
2023-03-24T00:59:10.236Z,17.40
2023-03-24T01:01:41.254Z,17.40
2023-03-24T01:04:10.455Z,17.40
2023-03-24T01:06:39.560Z,17.40
2023-03-24T01:09:08.623Z,17.50
2023-03-24T01:11:40.098Z,17.40
2023-03-24T01:14:11.063Z,17.40
2023-03-24T01:16:39.586Z,17.40
2023-03-24T01:19:09.401Z,17.50
2023-03-24T01:21:38.979Z,17.50
2023-03-24T01:24:08.317Z,17.50
2023-03-24T01:26:36.930Z,17.50
2023-03-24T01:29:06.107Z,17.50
2023-03-24T01:31:36.795Z,17.40
2023-03-24T01:34:05.433Z,17.50
2023-03-24T01:36:33.864Z,17.50
2023-03-24T01:39:02.201Z,17.40
2023-03-24T01:41:35.010Z,17.40
2023-03-24T01:44:03.691Z,17.40
2023-03-24T01:46:34.207Z,17.40
2023-03-24T01:49:07.991Z,17.40
2023-03-24T01:51:40.079Z,17.40
2023-03-24T01:54:13.011Z,17.40
2023-03-24T01:56:45.281Z,17.40
2023-03-24T01:59:19.739Z,17.40
2023-03-24T02:02:08.124Z,17.30
2023-03-24T02:04:48.514Z,17.30
2023-03-24T02:07:31.216Z,17.30
2023-03-24T02:09:59.488Z,17.30
2023-03-24T02:12:28.160Z,17.30
2023-03-24T02:14:57.759Z,17.30
2023-03-24T02:17:48.777Z,17.30
2023-03-24T02:20:56.342Z,17.30
2023-03-24T02:23:57.565Z,17.40
2023-03-24T02:26:55.073Z,17.30
2023-03-24T02:29:57.217Z,17.30
2023-03-24T02:33:04.666Z,17.30
2023-03-24T02:36:16.869Z,17.30
2023-03-24T02:39:17.363Z,17.30
2023-03-24T02:41:54.986Z,17.30
2023-03-24T02:44:29.805Z,17.30
2023-03-24T02:47:03.807Z,17.40
2023-03-24T02:49:39.045Z,17.40
2023-03-24T02:52:13.413Z,17.40
2023-03-24T02:54:49.069Z,17.40
2023-03-24T02:57:23.982Z,17.40
2023-03-24T03:00:16.822Z,17.30
2023-03-24T03:03:22.246Z,17.30
2023-03-24T03:05:55.140Z,17.30
2023-03-24T03:08:25.842Z,17.30
2023-03-24T03:10:57.098Z,17.30
2023-03-24T03:13:32.466Z,17.20
2023-03-24T03:16:07.279Z,17.20
2023-03-24T03:18:41.632Z,17.20
2023-03-24T03:21:13.952Z,17.20
2023-03-24T03:23:46.793Z,17.20
2023-03-24T03:26:18.480Z,17.10
2023-03-24T03:28:57.832Z,17.10
2023-03-24T03:31:31.013Z,17.10
2023-03-24T03:34:08.249Z,17.10
2023-03-24T03:36:43.777Z,17.10
2023-03-24T03:39:17.085Z,17.10
2023-03-24T03:41:46.612Z,17.10
2023-03-24T03:44:16.697Z,17.20
2023-03-24T03:46:45.169Z,17.20
2023-03-24T03:49:19.556Z,17.20
2023-03-24T03:51:47.800Z,17.30
2023-03-24T03:54:18.218Z,17.30
2023-03-24T03:56:49.975Z,17.20
2023-03-24T03:59:29.721Z,17.30
2023-03-24T04:01:59.914Z,17.20
2023-03-24T04:05:10.118Z,17.20
2023-03-24T04:07:53.926Z,17.20
2023-03-24T04:10:58.939Z,17.10
2023-03-24T04:13:37.432Z,17.00
2023-03-24T04:16:23.476Z,16.90
2023-03-24T04:19:30.254Z,16.80
2023-03-24T04:22:10.920Z,16.60
2023-03-24T04:24:49.963Z,16.30
2023-03-24T04:27:27.466Z,16.10
2023-03-24T04:30:09.215Z,16.00
2023-03-24T04:32:46.486Z,15.90
2023-03-24T04:35:31.626Z,16.00
2023-03-24T04:38:28.863Z,16.00
2023-03-24T04:41:11.998Z,16.10
2023-03-24T04:43:41.927Z,16.10
2023-03-24T04:46:12.083Z,16.10
2023-03-24T04:49:03.260Z,16.10
2023-03-24T04:51:34.593Z,16.00
2023-03-24T04:54:06.513Z,15.90
2023-03-24T04:56:46.142Z,15.80
2023-03-24T04:59:25.971Z,15.70
2023-03-24T05:01:54.302Z,15.70
2023-03-24T05:04:36.942Z,15.70
2023-03-24T05:07:17.490Z,15.70
2023-03-24T05:09:48.574Z,15.70
2023-03-24T05:12:22.152Z,15.70
2023-03-24T05:15:19.448Z,15.70
2023-03-24T05:17:52.625Z,15.70
2023-03-24T05:20:26.175Z,15.60
2023-03-24T05:22:55.392Z,15.50
2023-03-24T05:25:23.742Z,15.30
2023-03-24T05:27:52.850Z,15.20
2023-03-24T05:30:25.126Z,15.20
2023-03-24T05:32:59.981Z,15.20
2023-03-24T05:35:29.589Z,15.10
2023-03-24T05:37:58.052Z,15.10
2023-03-24T05:40:27.089Z,15.10
2023-03-24T05:43:15.560Z,15.10
2023-03-24T05:45:50.996Z,15.10
2023-03-24T05:48:28.980Z,15.20
2023-03-24T05:51:19.292Z,15.20
2023-03-24T05:53:53.089Z,15.10
2023-03-24T05:56:37.725Z,15.10
2023-03-24T05:59:17.169Z,15.00
2023-03-24T06:01:56.778Z,15.00
2023-03-24T06:04:32.644Z,15.00
2023-03-24T06:07:09.100Z,14.90
2023-03-24T06:09:42.313Z,14.90
2023-03-24T06:12:12.957Z,14.80
2023-03-24T06:14:49.383Z,14.70
2023-03-24T06:17:17.790Z,14.70
2023-03-24T06:19:50.176Z,14.70
2023-03-24T06:22:40.160Z,14.60
2023-03-24T06:25:15.302Z,14.60
2023-03-24T06:27:49.089Z,14.50
2023-03-24T06:30:22.011Z,14.50
2023-03-24T06:32:51.285Z,14.40
2023-03-24T06:35:20.887Z,14.30
2023-03-24T06:37:57.976Z,14.30
2023-03-24T06:40:26.505Z,14.20
2023-03-24T06:42:58.938Z,14.10
2023-03-24T06:45:28.625Z,14.00
2023-03-24T06:47:58.767Z,14.00
2023-03-24T06:50:30.823Z,14.00
2023-03-24T06:53:00.378Z,13.90
2023-03-24T06:55:30.431Z,13.90
2023-03-24T06:57:58.769Z,13.80
2023-03-24T07:01:02.165Z,13.80
2023-03-24T07:03:38.866Z,13.80
2023-03-24T07:06:27.309Z,13.80
2023-03-24T07:08:59.580Z,13.70
2023-03-24T07:11:29.641Z,13.50
2023-03-24T07:14:02.633Z,13.40
2023-03-24T07:16:32.179Z,13.30
2023-03-24T07:19:23.634Z,13.30
2023-03-24T07:22:03.620Z,13.40
2023-03-24T07:24:49.750Z,13.40
2023-03-24T07:27:41.675Z,13.50
2023-03-24T07:30:11.483Z,13.60
2023-03-24T07:32:43.880Z,13.70
2023-03-24T07:35:14.238Z,13.70
2023-03-24T07:37:42.698Z,13.70
2023-03-24T07:40:14.867Z,13.80
2023-03-24T07:42:44.072Z,13.70
2023-03-24T07:45:34.801Z,13.70
2023-03-24T07:48:03.542Z,13.70
2023-03-24T07:50:36.292Z,13.70
2023-03-24T07:53:11.701Z,13.70
2023-03-24T07:55:41.452Z,13.70
2023-03-24T07:58:15.498Z,13.70
2023-03-24T08:00:59.848Z,13.70
2023-03-24T08:03:38.411Z,13.70
2023-03-24T08:06:18.401Z,13.70
2023-03-24T08:08:51.882Z,13.70
2023-03-24T08:11:21.672Z,13.70
2023-03-24T08:13:50.020Z,13.60
2023-03-24T08:16:18.196Z,13.70
2023-03-24T08:18:46.344Z,13.70
2023-03-24T08:21:14.487Z,13.70
2023-03-24T08:23:42.819Z,13.80
2023-03-24T08:26:11.765Z,13.90
2023-03-24T08:28:41.594Z,13.80
2023-03-24T08:31:10.017Z,13.80
2023-03-24T08:33:38.261Z,13.80
2023-03-24T08:36:08.359Z,13.80
2023-03-24T08:38:38.940Z,13.80
2023-03-24T08:41:08.627Z,13.80
2023-03-24T08:43:38.033Z,13.80
2023-03-24T08:46:11.143Z,13.80
2023-03-24T08:48:41.186Z,13.80
2023-03-24T08:51:14.092Z,14.00
2023-03-24T08:53:42.398Z,14.00
2023-03-24T08:56:11.467Z,13.90
2023-03-24T08:58:39.854Z,14.00
2023-03-24T09:01:10.223Z,14.00
2023-03-24T09:03:39.885Z,14.00
2023-03-24T09:06:08.848Z,14.00
2023-03-24T09:08:37.048Z,14.00
2023-03-24T09:11:06.024Z,14.00
2023-03-24T09:13:34.514Z,14.00
2023-03-24T09:16:05.182Z,14.00
2023-03-24T09:18:34.949Z,14.10
2023-03-24T09:21:03.467Z,14.00
2023-03-24T09:23:32.312Z,14.00
2023-03-24T09:26:01.149Z,14.10
2023-03-24T09:28:29.510Z,14.10
2023-03-24T09:31:02.258Z,14.10
2023-03-24T09:33:31.078Z,14.10
2023-03-24T09:36:02.236Z,14.10
2023-03-24T09:38:31.062Z,14.20
2023-03-24T09:41:02.857Z,14.20
2023-03-24T09:43:38.522Z,14.20
2023-03-24T09:46:12.494Z,14.30
2023-03-24T09:48:45.461Z,14.30
2023-03-24T09:51:21.435Z,14.30
2023-03-24T09:53:59.249Z,14.30
2023-03-24T09:56:29.941Z,14.40
2023-03-24T09:59:05.753Z,14.40
2023-03-24T10:01:35.751Z,14.40
2023-03-24T10:04:05.303Z,14.40
2023-03-24T10:06:40.142Z,14.40
2023-03-24T10:09:22.803Z,14.40
2023-03-24T10:11:58.592Z,14.40
2023-03-24T10:14:37.885Z,14.50
2023-03-24T10:17:15.989Z,14.50
2023-03-24T10:19:50.954Z,14.50
2023-03-24T10:22:26.830Z,14.50
2023-03-24T10:25:00.403Z,14.50
2023-03-24T10:27:33.029Z,14.50
2023-03-24T10:30:08.059Z,14.50
2023-03-24T10:32:36.984Z,14.40
2023-03-24T10:35:10.027Z,14.40
2023-03-24T10:37:40.106Z,14.40
2023-03-24T10:40:16.695Z,14.30
2023-03-24T10:42:48.748Z,14.30
2023-03-24T10:45:28.153Z,14.30
2023-03-24T10:47:59.942Z,14.30
2023-03-24T10:50:29.893Z,14.20
2023-03-24T10:52:59.471Z,14.30
2023-03-24T10:55:32.501Z,14.30
2023-03-24T10:58:02.250Z,14.30
2023-03-24T11:00:32.481Z,14.30
2023-03-24T11:03:03.205Z,14.40
2023-03-24T11:05:34.976Z,14.40
2023-03-24T11:08:25.673Z,14.50
2023-03-24T11:10:53.795Z,14.50
2023-03-24T11:13:30.272Z,14.40
2023-03-24T11:16:08.335Z,14.40
2023-03-24T11:18:36.460Z,14.40
2023-03-24T11:21:07.165Z,14.30
2023-03-24T11:23:40.079Z,14.30
2023-03-24T11:26:11.153Z,14.20
2023-03-24T11:28:41.963Z,14.20
2023-03-24T11:31:11.784Z,14.00
2023-03-24T11:33:47.338Z,13.90
2023-03-24T11:36:50.512Z,13.80
2023-03-24T11:39:22.732Z,13.80
2023-03-24T11:42:15.070Z,13.70
2023-03-24T11:44:46.928Z,13.70
2023-03-24T11:47:22.509Z,13.70
2023-03-24T11:49:58.168Z,13.70
2023-03-24T11:52:31.460Z,13.70
2023-03-24T11:55:01.615Z,13.70
2023-03-24T11:57:44.586Z,13.70
2023-03-24T12:00:21.195Z,13.70
2023-03-24T12:03:19.780Z,13.60
2023-03-24T12:05:53.717Z,13.50
2023-03-24T12:08:38.760Z,13.50
2023-03-24T12:11:18.117Z,13.60
2023-03-24T12:13:50.574Z,13.70
2023-03-24T12:16:37.716Z,13.70
2023-03-24T12:19:30.693Z,13.70
2023-03-24T12:22:09.024Z,13.70
2023-03-24T12:24:53.995Z,13.70
2023-03-24T12:27:32.543Z,13.70
2023-03-24T12:30:05.581Z,13.60
2023-03-24T12:32:48.383Z,13.70
2023-03-24T12:35:37.553Z,13.70
2023-03-24T12:38:22.109Z,13.70
2023-03-24T12:41:04.942Z,13.70
2023-03-24T12:43:44.224Z,13.80
2023-03-24T12:46:40.717Z,13.80
2023-03-24T12:49:43.686Z,13.80
2023-03-24T12:52:24.430Z,13.80
2023-03-24T12:54:56.539Z,13.70
2023-03-24T12:57:28.444Z,13.70
2023-03-24T13:00:02.535Z,13.70
2023-03-24T13:02:35.125Z,13.70
2023-03-24T13:05:08.626Z,13.70
2023-03-24T13:07:39.416Z,13.70
2023-03-24T13:10:15.463Z,13.70
2023-03-24T13:12:47.631Z,13.70
2023-03-24T13:15:20.797Z,13.70
2023-03-24T13:17:52.982Z,13.60
2023-03-24T13:20:26.208Z,13.60
2023-03-24T13:22:54.359Z,13.50
2023-03-24T13:25:32.245Z,13.40
2023-03-24T13:28:06.683Z,13.40
2023-03-24T13:30:39.373Z,13.40
2023-03-24T13:33:15.181Z,13.40
2023-03-24T13:36:08.866Z,13.40
2023-03-24T13:38:42.318Z,13.40
2023-03-24T13:41:18.140Z,13.40
2023-03-24T13:43:50.720Z,13.40
2023-03-24T13:46:20.846Z,13.30
2023-03-24T13:48:53.522Z,13.30
2023-03-24T13:51:26.602Z,13.30
2023-03-24T13:53:59.598Z,13.20
2023-03-24T13:56:34.097Z,13.10
2023-03-24T13:59:23.931Z,12.90
2023-03-24T14:02:18.845Z,12.90
2023-03-24T14:04:48.822Z,12.90
2023-03-24T14:07:45.847Z,13.00
2023-03-24T14:10:38.038Z,12.80
2023-03-24T14:13:08.788Z,12.80
2023-03-24T14:15:41.877Z,13.00
2023-03-24T14:18:39.656Z,13.10
2023-03-24T14:21:09.828Z,13.30
2023-03-24T14:23:40.662Z,13.30
2023-03-24T14:26:14.144Z,13.30
2023-03-24T14:28:46.729Z,13.10
2023-03-24T14:31:29.229Z,13.10
2023-03-24T14:34:03.649Z,13.20
2023-03-24T14:36:35.158Z,13.20
2023-03-24T14:39:23.884Z,13.10
2023-03-24T14:41:52.721Z,13.10
2023-03-24T14:44:54.110Z,13.00
2023-03-24T14:47:23.519Z,13.00
2023-03-24T14:49:54.813Z,13.00
2023-03-24T14:52:27.063Z,12.90
2023-03-24T14:54:58.027Z,12.70
2023-03-24T14:57:28.228Z,12.70
2023-03-24T15:00:06.965Z,12.70
2023-03-24T15:02:38.972Z,12.80
2023-03-24T15:05:31.638Z,12.90
2023-03-24T15:08:03.290Z,13.10
2023-03-24T15:10:37.973Z,13.20
2023-03-24T15:13:06.273Z,13.40
2023-03-24T15:15:34.902Z,13.40
2023-03-24T15:18:04.137Z,13.60
2023-03-24T15:20:38.207Z,13.70
2023-03-24T15:23:07.512Z,13.80
2023-03-24T15:25:35.893Z,13.80
2023-03-24T15:28:14.477Z,13.90
2023-03-24T15:30:42.941Z,13.90
2023-03-24T15:33:14.044Z,13.90
2023-03-24T15:35:45.088Z,13.80
2023-03-24T15:38:21.736Z,13.70
2023-03-24T15:41:02.140Z,13.60
2023-03-24T15:43:31.121Z,13.50
2023-03-24T15:46:11.996Z,13.40
2023-03-24T15:48:41.138Z,13.30
2023-03-24T15:51:12.457Z,13.20
2023-03-24T15:53:44.511Z,13.30
2023-03-24T15:56:20.616Z,13.20
2023-03-24T15:58:52.733Z,13.20
2023-03-24T16:01:27.352Z,13.10
2023-03-24T16:03:56.432Z,13.20
2023-03-24T16:06:30.991Z,13.10
2023-03-24T16:09:06.664Z,13.10
2023-03-24T16:11:34.838Z,13.30
2023-03-24T16:14:10.532Z,13.40
2023-03-24T16:16:39.719Z,13.40
2023-03-24T16:19:07.909Z,13.50
2023-03-24T16:21:37.821Z,13.50
2023-03-24T16:24:06.702Z,13.60
2023-03-24T16:26:35.059Z,13.70
2023-03-24T16:29:15.264Z,13.70
2023-03-24T16:31:44.174Z,13.70
2023-03-24T16:34:12.372Z,13.70
2023-03-24T16:36:41.929Z,13.70
2023-03-24T16:39:16.614Z,13.80
2023-03-24T16:41:45.572Z,13.80
2023-03-24T16:44:14.363Z,13.70
2023-03-24T16:46:45.268Z,13.60
2023-03-24T16:49:17.313Z,13.60
2023-03-24T16:51:48.095Z,13.50
2023-03-24T16:54:16.573Z,13.50
2023-03-24T16:56:44.729Z,13.50
2023-03-24T16:59:15.593Z,13.50
2023-03-24T17:01:45.768Z,13.40
2023-03-24T17:04:16.239Z,13.40
2023-03-24T17:06:49.126Z,13.40
2023-03-24T17:09:17.737Z,13.30
2023-03-24T17:11:49.709Z,13.20
2023-03-24T17:14:18.019Z,13.20
2023-03-24T17:16:49.097Z,13.20
2023-03-24T17:19:19.155Z,13.10
2023-03-24T17:21:51.155Z,13.10
2023-03-24T17:24:19.633Z,13.10
2023-03-24T17:26:47.820Z,13.00
2023-03-24T17:29:15.932Z,13.00
2023-03-24T17:31:44.130Z,13.00
2023-03-24T17:34:21.594Z,12.90
2023-03-24T17:36:52.182Z,12.90
2023-03-24T17:39:21.906Z,12.90
2023-03-24T17:41:50.147Z,12.80
2023-03-24T17:44:18.464Z,12.80
2023-03-24T17:46:46.701Z,12.80
2023-03-24T17:49:14.833Z,12.80
2023-03-24T17:51:42.919Z,12.70
2023-03-24T17:54:13.331Z,12.70
2023-03-24T17:56:41.616Z,12.70
2023-03-24T17:59:10.065Z,12.70
2023-03-24T18:01:39.549Z,12.70
2023-03-24T18:04:08.276Z,12.60
2023-03-24T18:06:38.480Z,12.50
2023-03-24T18:12:05.292Z,12.30
2023-03-24T18:14:33.443Z,12.20
2023-03-24T18:17:01.703Z,12.10
2023-03-24T18:19:29.810Z,12.00
2023-03-24T18:21:57.900Z,12.00
2023-03-24T18:24:26.510Z,11.90
2023-03-24T18:26:54.644Z,11.90
2023-03-24T18:29:24.274Z,11.90
2023-03-24T18:31:52.485Z,11.90
2023-03-24T18:34:22.178Z,11.90
2023-03-24T18:36:50.306Z,11.80
2023-03-24T18:39:18.837Z,11.80
2023-03-24T18:41:48.064Z,11.80
2023-03-24T18:44:16.672Z,11.70
2023-03-24T18:46:46.261Z,11.70
2023-03-24T18:49:15.344Z,11.70
2023-03-24T18:51:45.119Z,11.70
2023-03-24T18:54:13.711Z,11.70
2023-03-24T18:56:42.194Z,11.70
2023-03-24T18:59:11.669Z,11.60
2023-03-24T19:01:40.096Z,11.60
2023-03-24T19:04:09.610Z,11.60
2023-03-24T19:06:42.312Z,11.60
2023-03-24T19:09:12.301Z,11.60
2023-03-24T19:11:43.145Z,11.50
2023-03-24T19:14:11.886Z,11.50
2023-03-24T19:16:40.070Z,11.50
2023-03-24T19:19:09.853Z,11.50
2023-03-24T19:21:38.381Z,11.50
2023-03-24T19:24:07.181Z,11.40
2023-03-24T19:26:35.701Z,11.40
2023-03-24T19:29:03.797Z,11.40
2023-03-24T19:31:33.604Z,11.40
2023-03-24T19:34:01.910Z,11.40
2023-03-24T19:36:31.389Z,11.40
2023-03-24T19:38:59.474Z,11.30
2023-03-24T19:41:27.565Z,11.40
2023-03-24T19:43:55.833Z,11.40
2023-03-24T19:46:23.990Z,11.40
2023-03-24T19:48:52.179Z,11.30
2023-03-24T19:51:21.262Z,11.30
2023-03-24T19:53:51.141Z,11.30
2023-03-24T19:56:20.766Z,11.30
2023-03-24T19:58:48.951Z,11.30
2023-03-24T20:01:17.097Z,11.30
2023-03-24T20:03:45.382Z,11.30
2023-03-24T20:06:13.560Z,11.20
2023-03-24T20:08:41.652Z,11.20
2023-03-24T20:11:12.395Z,11.20
2023-03-24T20:13:40.559Z,11.20
2023-03-24T20:16:08.884Z,11.20
2023-03-24T20:18:38.921Z,11.20
2023-03-24T20:21:08.483Z,11.30
2023-03-24T20:23:36.529Z,11.30
2023-03-24T20:26:04.671Z,11.30
2023-03-24T20:28:34.173Z,11.40
2023-03-24T20:31:03.350Z,11.40
2023-03-24T20:33:32.038Z,11.40
2023-03-24T20:36:00.221Z,11.40
2023-03-24T20:38:28.583Z,11.40
2023-03-24T20:41:00.633Z,11.40
2023-03-24T20:43:29.550Z,11.30
2023-03-24T20:45:59.606Z,11.30
2023-03-24T20:48:27.933Z,11.10
2023-03-24T20:50:56.068Z,11.00
2023-03-24T20:53:24.913Z,10.90
2023-03-24T20:56:00.827Z,10.90
2023-03-24T20:58:30.764Z,10.80
2023-03-24T21:01:00.491Z,10.80
2023-03-24T21:03:28.578Z,10.70
2023-03-24T21:05:56.752Z,10.70
2023-03-24T21:08:24.921Z,10.70
2023-03-24T21:10:57.144Z,10.70
2023-03-24T21:13:31.692Z,10.70
2023-03-24T21:16:08.733Z,10.70
2023-03-24T21:18:38.035Z,10.80
2023-03-24T21:21:07.219Z,10.80
2023-03-24T21:23:39.062Z,10.80
2023-03-24T21:26:09.247Z,10.90
2023-03-24T21:28:37.435Z,10.90
2023-03-24T21:31:11.103Z,10.90
2023-03-24T21:33:40.819Z,10.90
2023-03-24T21:36:10.942Z,10.90
2023-03-24T21:38:39.149Z,10.90
2023-03-24T21:41:08.067Z,11.00
2023-03-24T21:43:36.453Z,11.00
2023-03-24T21:46:05.017Z,11.00
2023-03-24T21:48:35.082Z,10.90
2023-03-24T21:51:04.073Z,10.80
2023-03-24T21:53:34.776Z,10.80
2023-03-24T21:56:05.427Z,10.60
2023-03-24T21:58:34.769Z,10.40
2023-03-24T22:01:03.225Z,10.40
2023-03-24T22:03:34.478Z,10.40
2023-03-24T22:06:04.933Z,10.40
2023-03-24T22:08:33.544Z,10.40
2023-03-24T22:11:04.377Z,10.40
2023-03-24T22:13:33.940Z,10.40
2023-03-24T22:16:04.292Z,10.40
2023-03-24T22:18:34.089Z,10.30
2023-03-24T22:21:06.978Z,10.30
2023-03-24T22:23:38.074Z,10.40
2023-03-24T22:26:09.312Z,10.30
2023-03-24T22:28:38.018Z,10.40
2023-03-24T22:31:08.280Z,10.40
2023-03-24T22:33:36.848Z,10.40
2023-03-24T22:36:08.019Z,10.50
2023-03-24T22:38:36.400Z,10.50
2023-03-24T22:41:06.855Z,10.50
2023-03-24T22:43:36.249Z,10.30
2023-03-24T22:46:04.655Z,10.20
2023-03-24T22:48:32.818Z,9.90
2023-03-24T22:51:01.366Z,9.70
2023-03-24T22:53:30.914Z,9.80
2023-03-24T22:55:59.027Z,9.70
2023-03-24T22:58:27.208Z,9.80
2023-03-24T23:00:57.356Z,9.90
2023-03-24T23:03:25.552Z,10.00
2023-03-24T23:05:53.680Z,9.90
2023-03-24T23:08:21.741Z,10.00
2023-03-24T23:10:51.226Z,10.00
2023-03-24T23:13:20.095Z,10.10
2023-03-24T23:15:49.882Z,10.00
2023-03-24T23:18:18.470Z,10.00
2023-03-24T23:20:46.892Z,10.00
2023-03-24T23:23:15.428Z,9.90
2023-03-24T23:25:45.531Z,9.90
2023-03-24T23:28:15.486Z,9.80
2023-03-24T23:30:43.600Z,9.80
2023-03-24T23:33:14.968Z,9.80
2023-03-24T23:35:43.196Z,9.70
2023-03-24T23:38:11.398Z,9.70
2023-03-24T23:40:39.579Z,9.80
2023-03-24T23:43:07.853Z,9.80
2023-03-24T23:45:37.354Z,9.80
2023-03-24T23:48:06.404Z,9.80
2023-03-24T23:50:35.183Z,9.80
2023-03-24T23:53:03.254Z,9.90
2023-03-24T23:55:31.871Z,9.80
2023-03-24T23:58:00.128Z,9.80
